sensor_id;sensor_type;location;lat;lon;timestamp;pressure;altitude;pressure_sealevel;temperature;humidity
15914;BME280;8055;51.930;8.840;2023-03-24T00:01:49;74951.56;;;-145.72;100.00
15914;BME280;8055;51.930;8.840;2023-03-24T00:04:15;74968.13;;;-145.72;100.00
15914;BME280;8055;51.930;8.840;2023-03-24T00:06:41;74968.13;;;-145.72;100.00
15914;BME280;8055;51.930;8.840;2023-03-24T00:09:08;74966.03;;;-145.72;100.00
15914;BME280;8055;51.930;8.840;2023-03-24T00:11:33;74968.13;;;-145.72;100.00
15914;BME280;8055;51.930;8.840;2023-03-24T00:14:00;74968.13;;;-145.72;100.00
15914;BME280;8055;51.930;8.840;2023-03-24T00:16:27;74961.91;;;-145.72;100.00
15914;BME280;8055;51.930;8.840;2023-03-24T00:18:53;74972.25;;;-145.72;100.00
15914;BME280;8055;51.930;8.840;2023-03-24T00:21:19;74963.97;;;-145.72;100.00
15914;BME280;8055;51.930;8.840;2023-03-24T00:23:49;74959.84;;;-145.72;100.00
15914;BME280;8055;51.930;8.840;2023-03-24T00:26:15;74951.56;;;-145.72;100.00
15914;BME280;8055;51.930;8.840;2023-03-24T00:28:45;74951.56;;;-145.72;100.00
15914;BME280;8055;51.930;8.840;2023-03-24T00:31:11;74957.78;;;-145.72;100.00
15914;BME280;8055;51.930;8.840;2023-03-24T00:33:41;74951.56;;;-145.72;100.00
15914;BME280;8055;51.930;8.840;2023-03-24T00:36:09;74939.16;;;-145.72;100.00
15914;BME280;8055;51.930;8.840;2023-03-24T00:38:39;74945.34;;;-145.72;100.00
15914;BME280;8055;51.930;8.840;2023-03-24T00:41:06;74937.06;;;-145.72;100.00
15914;BME280;8055;51.930;8.840;2023-03-24T00:43:32;74937.06;;;-145.72;100.00
15914;BME280;8055;51.930;8.840;2023-03-24T00:46:05;74939.16;;;-145.72;100.00
15914;BME280;8055;51.930;8.840;2023-03-24T00:48:32;74937.06;;;-145.72;100.00
15914;BME280;8055;51.930;8.840;2023-03-24T00:51:01;74928.81;;;-145.72;100.00
15914;BME280;8055;51.930;8.840;2023-03-24T00:53:27;74928.81;;;-145.72;100.00
15914;BME280;8055;51.930;8.840;2023-03-24T00:55:54;74924.66;;;-145.72;100.00
15914;BME280;8055;51.930;8.840;2023-03-24T00:58:20;74924.66;;;-145.72;100.00
15914;BME280;8055;51.930;8.840;2023-03-24T01:00:49;74912.25;;;-145.72;100.00
15914;BME280;8055;51.930;8.840;2023-03-24T01:03:15;74924.66;;;-145.72;100.00
15914;BME280;8055;51.930;8.840;2023-03-24T01:05:42;74910.19;;;-145.72;100.00
15914;BME280;8055;51.930;8.840;2023-03-24T01:08:12;74903.97;;;-145.72;100.00
15914;BME280;8055;51.930;8.840;2023-03-24T01:10:38;74901.91;;;-145.72;100.00
15914;BME280;8055;51.930;8.840;2023-03-24T01:13:16;74895.69;;;-145.72;100.00
15914;BME280;8055;51.930;8.840;2023-03-24T01:15:41;74881.22;;;-145.72;100.00
15914;BME280;8055;51.930;8.840;2023-03-24T01:18:07;74889.50;;;-145.72;100.00
15914;BME280;8055;51.930;8.840;2023-03-24T01:20:34;74893.63;;;-145.72;100.00
15914;BME280;8055;51.930;8.840;2023-03-24T01:23:01;74883.28;;;-145.72;100.00
15914;BME280;8055;51.930;8.840;2023-03-24T01:25:29;74889.50;;;-145.72;100.00
15914;BME280;8055;51.930;8.840;2023-03-24T01:27:55;74883.28;;;-145.72;100.00
15914;BME280;8055;51.930;8.840;2023-03-24T01:30:23;74893.63;;;-145.72;100.00
15914;BME280;8055;51.930;8.840;2023-03-24T01:32:49;74875.00;;;-145.72;100.00
15914;BME280;8055;51.930;8.840;2023-03-24T01:35:14;74877.09;;;-145.72;100.00
15914;BME280;8055;51.930;8.840;2023-03-24T01:37:40;74872.94;;;-145.72;100.00
15914;BME280;8055;51.930;8.840;2023-03-24T01:40:07;74862.59;;;-145.72;100.00
15914;BME280;8055;51.930;8.840;2023-03-24T01:42:35;74860.53;;;-145.72;100.00
15914;BME280;8055;51.930;8.840;2023-03-24T01:48:01;74854.31;;;-145.72;100.00
15914;BME280;8055;51.930;8.840;2023-03-24T01:50:28;74839.84;;;-145.72;100.00
15914;BME280;8055;51.930;8.840;2023-03-24T01:52:55;74835.72;;;-145.72;100.00
15914;BME280;8055;51.930;8.840;2023-03-24T01:55:22;74835.72;;;-145.72;100.00
15914;BME280;8055;51.930;8.840;2023-03-24T01:57:51;74827.44;;;-145.72;100.00
15914;BME280;8055;51.930;8.840;2023-03-24T02:00:19;74833.63;;;-145.72;100.00
15914;BME280;8055;51.930;8.840;2023-03-24T02:02:49;74831.56;;;-145.72;100.00
15914;BME280;8055;51.930;8.840;2023-03-24T02:05:20;74827.44;;;-145.72;100.00
15914;BME280;8055;51.930;8.840;2023-03-24T02:10:16;74819.16;;;-145.72;100.00
15914;BME280;8055;51.930;8.840;2023-03-24T02:12:43;74808.81;;;-145.72;100.00
15914;BME280;8055;51.930;8.840;2023-03-24T02:15:11;74819.16;;;-145.72;100.00
15914;BME280;8055;51.930;8.840;2023-03-24T02:34:29;74779.84;;;-145.72;100.00
15914;BME280;8055;51.930;8.840;2023-03-24T02:43:12;74773.66;;;-145.72;100.00
15914;BME280;8055;51.930;8.840;2023-03-24T02:46:08;74769.50;;;-145.72;100.00
15914;BME280;8055;51.930;8.840;2023-03-24T02:51:34;74775.72;;;-145.72;100.00
15914;BME280;8055;51.930;8.840;2023-03-24T02:54:14;74765.38;;;-145.72;100.00
15914;BME280;8055;51.930;8.840;2023-03-24T02:56:55;74763.31;;;-145.72;100.00
15914;BME280;8055;51.930;8.840;2023-03-24T03:02:06;74771.56;;;-145.72;100.00
15914;BME280;8055;51.930;8.840;2023-03-24T03:04:38;74769.50;;;-145.72;100.00
15914;BME280;8055;51.930;8.840;2023-03-24T03:07:07;74742.63;;;-145.72;100.00
15914;BME280;8055;51.930;8.840;2023-03-24T03:09:38;74757.09;;;-145.72;100.00
15914;BME280;8055;51.930;8.840;2023-03-24T03:12:07;74738.47;;;-145.72;100.00
15914;BME280;8055;51.930;8.840;2023-03-24T03:14:41;74740.56;;;-145.72;100.00
15914;BME280;8055;51.930;8.840;2023-03-24T03:17:16;74730.22;;;-145.72;100.00
15914;BME280;8055;51.930;8.840;2023-03-24T03:19:46;74732.28;;;-145.72;100.00
15914;BME280;8055;51.930;8.840;2023-03-24T03:22:20;74715.72;;;-145.72;100.00
15914;BME280;8055;51.930;8.840;2023-03-24T03:24:50;74711.59;;;-145.72;100.00
15914;BME280;8055;51.930;8.840;2023-03-24T03:27:23;74707.44;;;-145.72;100.00
15914;BME280;8055;51.930;8.840;2023-03-24T03:32:48;74690.91;;;-145.72;100.00
15914;BME280;8055;51.930;8.840;2023-03-24T03:35:21;74682.63;;;-145.72;100.00
15914;BME280;8055;51.930;8.840;2023-03-24T03:38:14;74672.28;;;-145.72;100.00
15914;BME280;8055;51.930;8.840;2023-03-24T03:41:02;74666.06;;;-145.72;100.00
15914;BME280;8055;51.930;8.840;2023-03-24T03:43:30;74664.00;;;-145.72;100.00
15914;BME280;8055;51.930;8.840;2023-03-24T03:45:57;74668.16;;;-145.72;100.00
15914;BME280;8055;51.930;8.840;2023-03-24T03:48:23;74659.88;;;-145.72;100.00
15914;BME280;8055;51.930;8.840;2023-03-24T03:50:54;74653.66;;;-145.72;100.00
15914;BME280;8055;51.930;8.840;2023-03-24T03:53:26;74645.38;;;-145.72;100.00
15914;BME280;8055;51.930;8.840;2023-03-24T03:55:52;74647.47;;;-145.72;100.00
15914;BME280;8055;51.930;8.840;2023-03-24T03:58:18;74641.25;;;-145.72;100.00
15914;BME280;8055;51.930;8.840;2023-03-24T04:00:43;74641.25;;;-145.72;100.00
15914;BME280;8055;51.930;8.840;2023-03-24T04:05:55;74628.84;;;-145.72;100.00
15914;BME280;8055;51.930;8.840;2023-03-24T04:11:34;74624.69;;;-145.72;100.00
15914;BME280;8055;51.930;8.840;2023-03-24T04:30:14;74606.09;;;-145.72;100.00
15914;BME280;8055;51.930;8.840;2023-03-24T04:35:20;74606.09;;;-145.72;100.00
15914;BME280;8055;51.930;8.840;2023-03-24T04:37:57;74593.69;;;-145.72;100.00
15914;BME280;8055;51.930;8.840;2023-03-24T04:40:27;74599.88;;;-145.72;100.00
15914;BME280;8055;51.930;8.840;2023-03-24T04:42:55;74573.00;;;-145.72;100.00
15914;BME280;8055;51.930;8.840;2023-03-24T04:45:22;74566.78;;;-145.72;100.00
15914;BME280;8055;51.930;8.840;2023-03-24T04:47:56;74566.78;;;-145.72;100.00
15914;BME280;8055;51.930;8.840;2023-03-24T04:50:30;74550.22;;;-145.72;100.00
15914;BME280;8055;51.930;8.840;2023-03-24T04:52:57;74560.56;;;-145.72;100.00
15914;BME280;8055;51.930;8.840;2023-03-24T04:58:12;74554.38;;;-145.72;100.00
15914;BME280;8055;51.930;8.840;2023-03-24T05:00:38;74556.44;;;-145.72;100.00
15914;BME280;8055;51.930;8.840;2023-03-24T05:03:03;74556.44;;;-145.72;100.00
15914;BME280;8055;51.930;8.840;2023-03-24T05:05:28;74562.66;;;-145.72;100.00
15914;BME280;8055;51.930;8.840;2023-03-24T05:07:54;74537.81;;;-145.72;100.00
15914;BME280;8055;51.930;8.840;2023-03-24T05:10:21;74517.13;;;-145.72;100.00
15914;BME280;8055;51.930;8.840;2023-03-24T05:12:47;74521.28;;;-145.72;100.00
15914;BME280;8055;51.930;8.840;2023-03-24T05:15:13;74527.47;;;-145.72;100.00
15914;BME280;8055;51.930;8.840;2023-03-24T05:17:38;74523.34;;;-145.72;100.00
15914;BME280;8055;51.930;8.840;2023-03-24T05:20:05;74533.69;;;-145.72;100.00
15914;BME280;8055;51.930;8.840;2023-03-24T05:22:35;74546.09;;;-145.72;100.00
15914;BME280;8055;51.930;8.840;2023-03-24T05:25:01;74554.38;;;-145.72;100.00
15914;BME280;8055;51.930;8.840;2023-03-24T05:27:26;74568.84;;;-145.72;100.00
15914;BME280;8055;51.930;8.840;2023-03-24T05:29:51;74573.00;;;-145.72;100.00
15914;BME280;8055;51.930;8.840;2023-03-24T05:32:17;74589.53;;;-145.72;100.00
15914;BME280;8055;51.930;8.840;2023-03-24T05:34:42;74587.47;;;-145.72;100.00
15914;BME280;8055;51.930;8.840;2023-03-24T05:37:07;74597.81;;;-145.72;100.00
15914;BME280;8055;51.930;8.840;2023-03-24T05:39:36;74591.59;;;-145.72;100.00
15914;BME280;8055;51.930;8.840;2023-03-24T05:42:01;74614.34;;;-145.72;100.00
15914;BME280;8055;51.930;8.840;2023-03-24T05:44:27;74630.91;;;-145.72;100.00
15914;BME280;8055;51.930;8.840;2023-03-24T05:46:52;74630.91;;;-145.72;100.00
15914;BME280;8055;51.930;8.840;2023-03-24T05:49:17;74637.13;;;-145.72;100.00
15914;BME280;8055;51.930;8.840;2023-03-24T05:51:43;74628.84;;;-145.72;100.00
15914;BME280;8055;51.930;8.840;2023-03-24T05:54:08;74635.03;;;-145.72;100.00
15914;BME280;8055;51.930;8.840;2023-03-24T05:56:34;74639.19;;;-145.72;100.00
15914;BME280;8055;51.930;8.840;2023-03-24T05:58:59;74643.31;;;-145.72;100.00
15914;BME280;8055;51.930;8.840;2023-03-24T06:01:24;74657.81;;;-145.72;100.00
15914;BME280;8055;51.930;8.840;2023-03-24T06:03:50;74664.00;;;-145.72;100.00
15914;BME280;8055;51.930;8.840;2023-03-24T06:06:15;74657.81;;;-145.72;100.00
15914;BME280;8055;51.930;8.840;2023-03-24T06:08:42;74670.22;;;-145.72;100.00
15914;BME280;8055;51.930;8.840;2023-03-24T06:11:10;74674.34;;;-145.72;100.00
15914;BME280;8055;51.930;8.840;2023-03-24T06:13:36;74680.56;;;-145.72;100.00
15914;BME280;8055;51.930;8.840;2023-03-24T06:16:01;74664.00;;;-145.72;100.00
15914;BME280;8055;51.930;8.840;2023-03-24T06:18:27;74686.75;;;-145.72;100.00
15914;BME280;8055;51.930;8.840;2023-03-24T06:20:55;74688.84;;;-145.72;100.00
15914;BME280;8055;51.930;8.840;2023-03-24T06:23:25;74703.31;;;-145.72;100.00
15914;BME280;8055;51.930;8.840;2023-03-24T06:25:56;74711.59;;;-145.72;100.00
15914;BME280;8055;51.930;8.840;2023-03-24T06:28:28;74717.78;;;-145.72;100.00
15914;BME280;8055;51.930;8.840;2023-03-24T06:30:56;74717.78;;;-145.72;100.00
15914;BME280;8055;51.930;8.840;2023-03-24T06:33:23;74726.06;;;-145.72;100.00
15914;BME280;8055;51.930;8.840;2023-03-24T06:35:53;74719.88;;;-145.72;100.00
15914;BME280;8055;51.930;8.840;2023-03-24T06:38:18;74726.06;;;-145.72;100.00
15914;BME280;8055;51.930;8.840;2023-03-24T06:40:44;74732.28;;;-145.72;100.00
15914;BME280;8055;51.930;8.840;2023-03-24T06:43:10;74724.00;;;-145.72;100.00
15914;BME280;8055;51.930;8.840;2023-03-24T06:45:35;74719.88;;;-145.72;100.00
15914;BME280;8055;51.930;8.840;2023-03-24T06:48:03;74728.13;;;-145.72;100.00
15914;BME280;8055;51.930;8.840;2023-03-24T06:50:30;74713.66;;;-145.72;100.00
15914;BME280;8055;51.930;8.840;2023-03-24T06:53:00;74703.31;;;-145.72;100.00
15914;BME280;8055;51.930;8.840;2023-03-24T06:55:25;74690.91;;;-145.72;100.00
15914;BME280;8055;51.930;8.840;2023-03-24T06:57:51;74666.06;;;-145.72;100.00
15914;BME280;8055;51.930;8.840;2023-03-24T07:00:17;74666.06;;;-145.72;100.00
15914;BME280;8055;51.930;8.840;2023-03-24T07:02:43;74672.28;;;-145.72;100.00
15914;BME280;8055;51.930;8.840;2023-03-24T07:05:10;74711.59;;;-145.72;100.00
15914;BME280;8055;51.930;8.840;2023-03-24T07:07:37;74738.47;;;-145.72;100.00
15914;BME280;8055;51.930;8.840;2023-03-24T07:10:04;74748.81;;;-145.72;100.00
15914;BME280;8055;51.930;8.840;2023-03-24T07:12:29;74790.19;;;-145.72;100.00
15914;BME280;8055;51.930;8.840;2023-03-24T07:14:55;74777.78;;;-145.72;100.00
15914;BME280;8055;51.930;8.840;2023-03-24T07:17:21;74802.63;;;-145.72;100.00
15914;BME280;8055;51.930;8.840;2023-03-24T07:19:46;74833.63;;;-145.72;100.00
15914;BME280;8055;51.930;8.840;2023-03-24T07:22:12;74837.78;;;-145.72;100.00
15914;BME280;8055;51.930;8.840;2023-03-24T07:24:37;74833.63;;;-145.72;100.00
15914;BME280;8055;51.930;8.840;2023-03-24T07:27:03;74860.53;;;-145.72;100.00
15914;BME280;8055;51.930;8.840;2023-03-24T07:29:28;74875.00;;;-145.72;100.00
15914;BME280;8055;51.930;8.840;2023-03-24T07:31:53;74899.84;;;-145.72;100.00
15914;BME280;8055;51.930;8.840;2023-03-24T07:34:23;74908.13;;;-145.72;100.00
15914;BME280;8055;51.930;8.840;2023-03-24T07:36:50;74926.72;;;-145.72;100.00
15914;BME280;8055;51.930;8.840;2023-03-24T07:39:16;74937.06;;;-145.72;100.00
15914;BME280;8055;51.930;8.840;2023-03-24T07:41:41;74932.94;;;-145.72;100.00
15914;BME280;8055;51.930;8.840;2023-03-24T07:44:07;74951.56;;;-145.72;100.00
15914;BME280;8055;51.930;8.840;2023-03-24T07:46:33;74937.06;;;-145.72;100.00
15914;BME280;8055;51.930;8.840;2023-03-24T07:48:58;74926.72;;;-145.72;100.00
15914;BME280;8055;51.930;8.840;2023-03-24T07:51:23;74928.81;;;-145.72;100.00
15914;BME280;8055;51.930;8.840;2023-03-24T07:53:49;74918.47;;;-145.72;100.00
15914;BME280;8055;51.930;8.840;2023-03-24T07:56:15;74903.97;;;-145.72;100.00
15914;BME280;8055;51.930;8.840;2023-03-24T07:58:40;74903.97;;;-145.72;100.00
15914;BME280;8055;51.930;8.840;2023-03-24T08:01:06;74908.13;;;-145.72;100.00
15914;BME280;8055;51.930;8.840;2023-03-24T08:03:35;74893.63;;;-145.72;100.00
15914;BME280;8055;51.930;8.840;2023-03-24T08:06:00;74903.97;;;-145.72;100.00
15914;BME280;8055;51.930;8.840;2023-03-24T08:08:26;74912.25;;;-145.72;100.00
15914;BME280;8055;51.930;8.840;2023-03-24T08:10:52;74870.88;;;-145.72;100.00
15914;BME280;8055;51.930;8.840;2023-03-24T08:13:17;74868.81;;;-145.72;100.00
15914;BME280;8055;51.930;8.840;2023-03-24T08:15:43;74885.34;;;-145.72;100.00
15914;BME280;8055;51.930;8.840;2023-03-24T08:18:08;74889.50;;;-145.72;100.00
15914;BME280;8055;51.930;8.840;2023-03-24T08:20:33;74895.69;;;-145.72;100.00
15914;BME280;8055;51.930;8.840;2023-03-24T08:22:59;74889.50;;;-145.72;100.00
15914;BME280;8055;51.930;8.840;2023-03-24T08:25:25;74891.56;;;-145.72;100.00
15914;BME280;8055;51.930;8.840;2023-03-24T08:27:51;74883.28;;;-145.72;100.00
15914;BME280;8055;51.930;8.840;2023-03-24T08:30:19;74897.78;;;-145.72;100.00
15914;BME280;8055;51.930;8.840;2023-03-24T08:32:54;74899.84;;;-145.72;100.00
15914;BME280;8055;51.930;8.840;2023-03-24T08:35:23;74920.53;;;-145.72;100.00
15914;BME280;8055;51.930;8.840;2023-03-24T08:37:49;74932.94;;;-145.72;100.00
15914;BME280;8055;51.930;8.840;2023-03-24T08:40:18;74912.25;;;-145.72;100.00
15914;BME280;8055;51.930;8.840;2023-03-24T08:42:49;74937.06;;;-145.72;100.00
15914;BME280;8055;51.930;8.840;2023-03-24T08:45:15;74912.25;;;-145.72;100.00
15914;BME280;8055;51.930;8.840;2023-03-24T08:47:45;74889.50;;;-145.72;100.00
15914;BME280;8055;51.930;8.840;2023-03-24T08:50:11;74903.97;;;-145.72;100.00
15914;BME280;8055;51.930;8.840;2023-03-24T08:52:37;74899.84;;;-145.72;100.00
15914;BME280;8055;51.930;8.840;2023-03-24T08:55:03;74899.84;;;-145.72;100.00
15914;BME280;8055;51.930;8.840;2023-03-24T08:57:29;74893.63;;;-145.72;100.00
15914;BME280;8055;51.930;8.840;2023-03-24T08:59:54;74868.81;;;-145.72;100.00
15914;BME280;8055;51.930;8.840;2023-03-24T09:02:20;74885.34;;;-145.72;100.00
15914;BME280;8055;51.930;8.840;2023-03-24T09:04:45;74903.97;;;-145.72;100.00
15914;BME280;8055;51.930;8.840;2023-03-24T09:07:11;74908.13;;;-145.72;100.00
15914;BME280;8055;51.930;8.840;2023-03-24T09:09:37;74868.81;;;-145.72;100.00
15914;BME280;8055;51.930;8.840;2023-03-24T09:12:03;74860.53;;;-145.72;100.00
15914;BME280;8055;51.930;8.840;2023-03-24T09:14:29;74852.25;;;-145.72;100.00
15914;BME280;8055;51.930;8.840;2023-03-24T09:16:55;74837.78;;;-145.72;100.00
15914;BME280;8055;51.930;8.840;2023-03-24T09:19:20;74827.44;;;-145.72;100.00
15914;BME280;8055;51.930;8.840;2023-03-24T09:21:47;74819.16;;;-145.72;100.00
15914;BME280;8055;51.930;8.840;2023-03-24T09:24:13;74788.13;;;-145.72;100.00
15914;BME280;8055;51.930;8.840;2023-03-24T09:26:39;74769.50;;;-145.72;100.00
15914;BME280;8055;51.930;8.840;2023-03-24T09:29:04;74784.00;;;-145.72;100.00
15914;BME280;8055;51.930;8.840;2023-03-24T09:31:30;74777.78;;;-145.72;100.00
15914;BME280;8055;51.930;8.840;2023-03-24T09:33:55;74800.53;;;-145.72;100.00
15914;BME280;8055;51.930;8.840;2023-03-24T09:36:21;74802.63;;;-145.72;100.00
15914;BME280;8055;51.930;8.840;2023-03-24T09:38:47;74810.88;;;-145.72;100.00
15914;BME280;8055;51.930;8.840;2023-03-24T09:41:24;74819.16;;;-145.72;100.00
15914;BME280;8055;51.930;8.840;2023-03-24T09:43:56;74810.88;;;-145.72;100.00
15914;BME280;8055;51.930;8.840;2023-03-24T09:46:37;74804.69;;;-145.72;100.00
15914;BME280;8055;51.930;8.840;2023-03-24T09:49:04;74798.47;;;-145.72;100.00
15914;BME280;8055;51.930;8.840;2023-03-24T09:51:40;74790.19;;;-145.72;100.00
15914;BME280;8055;51.930;8.840;2023-03-24T09:56:37;74763.31;;;-145.72;100.00
15914;BME280;8055;51.930;8.840;2023-03-24T09:59:12;74755.03;;;-145.72;100.00
15914;BME280;8055;51.930;8.840;2023-03-24T10:01:39;74750.88;;;-145.72;100.00
15914;BME280;8055;51.930;8.840;2023-03-24T10:04:13;74744.69;;;-145.72;100.00
15914;BME280;8055;51.930;8.840;2023-03-24T10:06:40;74759.16;;;-145.72;100.00
15914;BME280;8055;51.930;8.840;2023-03-24T10:09:22;74767.44;;;-145.72;100.00
15914;BME280;8055;51.930;8.840;2023-03-24T10:12:10;74773.66;;;-145.72;100.00
15914;BME280;8055;51.930;8.840;2023-03-24T10:14:56;74777.78;;;-145.72;100.00
15914;BME280;8055;51.930;8.840;2023-03-24T10:20:30;74744.69;;;-145.72;100.00
15914;BME280;8055;51.930;8.840;2023-03-24T10:23:01;74740.56;;;-145.72;100.00
15914;BME280;8055;51.930;8.840;2023-03-24T10:29:08;74730.22;;;-145.72;100.00
15914;BME280;8055;51.930;8.840;2023-03-24T10:31:38;74746.75;;;-145.72;100.00
15914;BME280;8055;51.930;8.840;2023-03-24T10:34:09;74746.75;;;-145.72;100.00
15914;BME280;8055;51.930;8.840;2023-03-24T10:36:36;74752.97;;;-145.72;100.00
15914;BME280;8055;51.930;8.840;2023-03-24T10:39:04;74759.16;;;-145.72;100.00
15914;BME280;8055;51.930;8.840;2023-03-24T10:41:31;74777.78;;;-145.72;100.00
15914;BME280;8055;51.930;8.840;2023-03-24T10:43:58;74792.25;;;-145.72;100.00
15914;BME280;8055;51.930;8.840;2023-03-24T10:46:27;74777.78;;;-145.72;100.00
15914;BME280;8055;51.930;8.840;2023-03-24T10:51:50;74763.31;;;-145.72;100.00
15914;BME280;8055;51.930;8.840;2023-03-24T10:54:18;74750.88;;;-145.72;100.00
15914;BME280;8055;51.930;8.840;2023-03-24T10:57:02;74719.88;;;-145.72;100.00
15914;BME280;8055;51.930;8.840;2023-03-24T10:59:45;74690.91;;;-145.72;100.00
15914;BME280;8055;51.930;8.840;2023-03-24T11:02:48;74705.38;;;-145.72;100.00
15914;BME280;8055;51.930;8.840;2023-03-24T11:07:38;74740.56;;;-145.72;100.00
15914;BME280;8055;51.930;8.840;2023-03-24T11:12:33;74777.78;;;-145.72;100.00
15914;BME280;8055;51.930;8.840;2023-03-24T11:17:44;74798.47;;;-145.72;100.00
15914;BME280;8055;51.930;8.840;2023-03-24T11:20:25;74804.69;;;-145.72;100.00
15914;BME280;8055;51.930;8.840;2023-03-24T11:22:56;74827.44;;;-145.72;100.00
15914;BME280;8055;51.930;8.840;2023-03-24T11:25:27;74819.16;;;-145.72;100.00
15914;BME280;8055;51.930;8.840;2023-03-24T11:27:59;74798.47;;;-145.72;100.00
15914;BME280;8055;51.930;8.840;2023-03-24T11:30:34;74788.13;;;-145.72;100.00
15914;BME280;8055;51.930;8.840;2023-03-24T11:33:17;74767.44;;;-145.72;100.00
15914;BME280;8055;51.930;8.840;2023-03-24T11:35:42;74750.88;;;-145.72;100.00
15914;BME280;8055;51.930;8.840;2023-03-24T11:38:14;74728.13;;;-145.72;100.00
15914;BME280;8055;51.930;8.840;2023-03-24T11:40:52;74690.91;;;-145.72;100.00
15914;BME280;8055;51.930;8.840;2023-03-24T11:43:20;74659.88;;;-145.72;100.00
15914;BME280;8055;51.930;8.840;2023-03-24T11:45:53;74651.59;;;-145.72;100.00
15914;BME280;8055;51.930;8.840;2023-03-24T11:48:36;74649.53;;;-145.72;100.00
15914;BME280;8055;51.930;8.840;2023-03-24T11:51:04;74649.53;;;-145.72;100.00
15914;BME280;8055;51.930;8.840;2023-03-24T11:53:43;74659.88;;;-145.72;100.00
15914;BME280;8055;51.930;8.840;2023-03-24T11:56:12;74661.94;;;-145.72;100.00
15914;BME280;8055;51.930;8.840;2023-03-24T12:01:33;74670.22;;;-145.72;100.00
15914;BME280;8055;51.930;8.840;2023-03-24T12:04:22;74666.06;;;-145.72;100.00
15914;BME280;8055;51.930;8.840;2023-03-24T12:12:41;74682.63;;;-145.72;100.00
15914;BME280;8055;51.930;8.840;2023-03-24T12:17:41;74635.03;;;-145.72;100.00
15914;BME280;8055;51.930;8.840;2023-03-24T12:23:10;74568.84;;;-145.72;100.00
15914;BME280;8055;51.930;8.840;2023-03-24T12:28:37;74492.31;;;-145.72;100.00
15914;BME280;8055;51.930;8.840;2023-03-24T12:33:42;74461.28;;;-145.72;97.26
15914;BME280;8055;51.930;8.840;2023-03-24T12:36:28;74469.56;;;-145.72;90.26
15914;BME280;8055;51.930;8.840;2023-03-24T12:39:14;74517.13;;;-145.72;100.00
15914;BME280;8055;51.930;8.840;2023-03-24T12:42:13;74566.78;;;-145.72;96.82
15914;BME280;8055;51.930;8.840;2023-03-24T12:47:34;74502.66;;;-145.72;90.18
15914;BME280;8055;51.930;8.840;2023-03-24T12:59:08;74523.34;;;-145.72;94.33
15914;BME280;8055;51.930;8.840;2023-03-24T13:01:38;74531.63;;;-145.72;96.37
15914;BME280;8055;51.930;8.840;2023-03-24T13:06:52;74453.00;;;-145.72;94.46
15914;BME280;8055;51.930;8.840;2023-03-24T13:12:15;74513.00;;;-145.72;91.40
15914;BME280;8055;51.930;8.840;2023-03-24T13:14:51;74546.09;;;-145.72;93.86
15914;BME280;8055;51.930;8.840;2023-03-24T13:17:29;74558.50;;;-145.72;94.78
15914;BME280;8055;51.930;8.840;2023-03-24T13:19:56;74575.06;;;-145.72;100.00
15914;BME280;8055;51.930;8.840;2023-03-24T13:22:23;74575.06;;;-145.72;98.27
15914;BME280;8055;51.930;8.840;2023-03-24T13:24:49;74566.78;;;-145.72;97.60
15914;BME280;8055;51.930;8.840;2023-03-24T13:27:25;74564.72;;;-145.72;96.91
15914;BME280;8055;51.930;8.840;2023-03-24T13:32:47;74601.94;;;-145.72;100.00
15914;BME280;8055;51.930;8.840;2023-03-24T13:35:23;74616.44;;;-145.72;100.00
15914;BME280;8055;51.930;8.840;2023-03-24T13:37:58;74639.19;;;-145.72;100.00
15914;BME280;8055;51.930;8.840;2023-03-24T13:40:28;74628.84;;;-145.72;100.00
15914;BME280;8055;51.930;8.840;2023-03-24T13:42:57;74645.38;;;-145.72;100.00
15914;BME280;8055;51.930;8.840;2023-03-24T13:46:18;74622.63;;;-145.72;100.00
15914;BME280;8055;51.930;8.840;2023-03-24T13:48:39;74599.88;;;-145.72;100.00
15914;BME280;8055;51.930;8.840;2023-03-24T13:51:23;74604.00;;;-145.72;100.00
15914;BME280;8055;51.930;8.840;2023-03-24T13:56:30;74637.13;;;-145.72;100.00
15914;BME280;8055;51.930;8.840;2023-03-24T14:01:43;74649.53;;;-145.72;100.00
15914;BME280;8055;51.930;8.840;2023-03-24T14:06:57;74612.28;;;-145.72;100.00
15914;BME280;8055;51.930;8.840;2023-03-24T14:09:30;74606.09;;;-145.72;100.00
15914;BME280;8055;51.930;8.840;2023-03-24T14:14:35;74632.97;;;-145.72;97.06
15914;BME280;8055;51.930;8.840;2023-03-24T14:17:10;74630.91;;;-145.72;100.00
15914;BME280;8055;51.930;8.840;2023-03-24T14:22:54;74620.56;;;-145.72;94.88
15914;BME280;8055;51.930;8.840;2023-03-24T14:27:34;74583.34;;;-145.72;88.68
15914;BME280;8055;51.930;8.840;2023-03-24T14:30:10;74575.06;;;-145.72;89.47
15914;BME280;8055;51.930;8.840;2023-03-24T14:32:46;74558.50;;;-145.72;89.18
15914;BME280;8055;51.930;8.840;2023-03-24T14:38:05;74566.78;;;-145.72;90.28
15914;BME280;8055;51.930;8.840;2023-03-24T14:40:49;74577.13;;;-145.72;89.89
15914;BME280;8055;51.930;8.840;2023-03-24T14:43:21;74583.34;;;-145.72;89.08
15914;BME280;8055;51.930;8.840;2023-03-24T14:45:51;74608.16;;;-145.72;90.05
15914;BME280;8055;51.930;8.840;2023-03-24T14:51:34;74649.53;;;-145.72;95.32
15914;BME280;8055;51.930;8.840;2023-03-24T14:54:11;74672.28;;;-145.72;100.00
15914;BME280;8055;51.930;8.840;2023-03-24T14:56:40;74672.28;;;-145.72;95.60
15914;BME280;8055;51.930;8.840;2023-03-24T14:59:14;74668.16;;;-145.72;91.43
15914;BME280;8055;51.930;8.840;2023-03-24T15:01:43;74684.69;;;-145.72;95.08
15914;BME280;8055;51.930;8.840;2023-03-24T15:04:13;74678.50;;;-145.72;95.73
15914;BME280;8055;51.930;8.840;2023-03-24T15:06:46;74674.34;;;-145.72;96.09
15914;BME280;8055;51.930;8.840;2023-03-24T15:09:14;74682.63;;;-145.72;96.70
15914;BME280;8055;51.930;8.840;2023-03-24T15:11:41;74672.28;;;-145.72;97.00
15914;BME280;8055;51.930;8.840;2023-03-24T15:14:24;74666.06;;;-145.72;99.67
15914;BME280;8055;51.930;8.840;2023-03-24T15:17:18;74684.69;;;-145.72;100.00
15914;BME280;8055;51.930;8.840;2023-03-24T15:19:49;74674.34;;;-145.72;100.00